createdAt,value
2018-09-13T00:00:24.459Z,22.90
2018-09-13T00:02:57.883Z,22.60
2018-09-13T00:05:31.264Z,21.80
2018-09-13T00:08:04.696Z,22.10
2018-09-13T00:10:38.116Z,22.30
2018-09-13T00:13:11.520Z,22.40
2018-09-13T00:15:44.903Z,22.40
2018-09-13T00:18:18.267Z,22.40
2018-09-13T00:20:51.875Z,22.50
2018-09-13T00:23:25.247Z,22.40
2018-09-13T00:25:58.639Z,22.40
2018-09-13T00:28:32.008Z,22.40
2018-09-13T00:31:05.435Z,22.40
2018-09-13T00:33:38.800Z,22.50
2018-09-13T00:36:12.250Z,22.40
2018-09-13T00:38:45.651Z,22.40
2018-09-13T00:41:19.072Z,22.30
2018-09-13T00:43:52.467Z,22.30
2018-09-13T00:46:25.867Z,22.10
2018-09-13T00:48:59.353Z,22.20
2018-09-13T00:51:32.767Z,22.20
2018-09-13T00:54:06.162Z,22.20
2018-09-13T00:56:39.567Z,22.00
2018-09-13T00:59:12.964Z,22.00
2018-09-13T01:01:46.454Z,22.00
2018-09-13T01:04:19.836Z,21.80
2018-09-13T01:06:53.231Z,21.60
2018-09-13T01:09:26.621Z,21.70
2018-09-13T01:12:00.042Z,21.80
2018-09-13T01:14:33.451Z,21.80
2018-09-13T01:17:06.863Z,21.80
2018-09-13T01:19:40.251Z,21.90
2018-09-13T01:22:13.647Z,22.00
2018-09-13T01:24:47.144Z,22.00
2018-09-13T01:27:20.535Z,22.10
2018-09-13T01:29:53.915Z,22.00
2018-09-13T01:32:27.363Z,21.90
2018-09-13T01:35:00.807Z,21.80
2018-09-13T01:37:34.207Z,21.80
2018-09-13T01:40:07.639Z,21.90
2018-09-13T01:42:41.027Z,21.80
2018-09-13T01:45:14.403Z,21.70
2018-09-13T01:47:47.804Z,21.60
2018-09-13T01:50:21.178Z,21.40
2018-09-13T01:52:54.574Z,21.30
2018-09-13T01:55:27.947Z,21.40
2018-09-13T01:58:01.367Z,21.40
2018-09-13T02:00:34.731Z,21.50
2018-09-13T02:03:08.215Z,21.60
2018-09-13T02:05:41.591Z,21.50
2018-09-13T02:08:14.972Z,21.50
2018-09-13T02:10:48.331Z,21.50
2018-09-13T02:13:21.723Z,21.50
2018-09-13T02:15:55.122Z,21.50
2018-09-13T02:18:28.495Z,21.50
2018-09-13T02:21:01.865Z,21.40
2018-09-13T02:23:35.240Z,21.30
2018-09-13T02:26:08.599Z,21.00
2018-09-13T02:28:42.331Z,20.60
2018-09-13T02:31:15.720Z,20.30
2018-09-13T02:33:49.136Z,20.40
2018-09-13T02:36:22.503Z,20.50
2018-09-13T02:38:55.903Z,20.70
2018-09-13T02:41:29.271Z,20.70
2018-09-13T02:44:02.771Z,20.40
2018-09-13T02:46:36.505Z,20.50
2018-09-13T02:49:10.326Z,20.50
2018-09-13T02:51:43.708Z,20.70
2018-09-13T02:54:17.095Z,20.80
2018-09-13T02:56:50.466Z,20.90
2018-09-13T02:59:23.860Z,21.00
2018-09-13T03:01:57.223Z,20.90
2018-09-13T03:04:30.656Z,20.70
2018-09-13T03:07:04.035Z,20.40
2018-09-13T03:09:37.439Z,20.50
2018-09-13T03:12:10.814Z,20.70
2018-09-13T03:14:44.207Z,20.70
2018-09-13T03:17:17.579Z,20.80
2018-09-13T03:19:50.972Z,20.70
2018-09-13T03:22:24.342Z,20.70
2018-09-13T03:24:57.727Z,20.70
2018-09-13T03:27:31.200Z,20.20
2018-09-13T03:30:05.478Z,20.20
2018-09-13T03:32:39.609Z,20.40
2018-09-13T03:35:13.026Z,20.40
2018-09-13T03:37:46.485Z,20.60
2018-09-13T03:40:19.875Z,20.60
2018-09-13T03:42:53.342Z,20.50
2018-09-13T03:45:26.741Z,20.40
2018-09-13T03:48:00.114Z,20.50
2018-09-13T03:50:33.517Z,20.40
2018-09-13T03:53:06.885Z,20.50
2018-09-13T03:55:40.279Z,20.60
2018-09-13T03:58:13.638Z,20.70
2018-09-13T04:00:47.024Z,20.70
2018-09-13T04:03:20.497Z,20.60
2018-09-13T04:05:53.922Z,20.70
2018-09-13T04:08:27.675Z,20.40
2018-09-13T04:11:01.058Z,20.10
2018-09-13T04:13:34.508Z,20.30
2018-09-13T04:16:07.917Z,20.50
2018-09-13T04:18:41.353Z,20.60
2018-09-13T04:21:14.707Z,20.60
2018-09-13T04:23:48.070Z,20.40
2018-09-13T04:26:21.455Z,20.60
2018-09-13T04:28:54.994Z,20.60
2018-09-13T04:31:28.374Z,20.90
2018-09-13T04:34:01.742Z,21.10
2018-09-13T04:36:35.131Z,21.00
2018-09-13T04:39:09.046Z,20.90
2018-09-13T04:41:42.459Z,20.80
2018-09-13T04:44:15.881Z,20.80
2018-09-13T04:46:49.584Z,20.80
2018-09-13T04:49:22.961Z,20.80
2018-09-13T04:51:56.358Z,20.80
2018-09-13T04:54:29.751Z,20.80
2018-09-13T04:57:03.165Z,20.80
2018-09-13T04:59:36.546Z,20.80
2018-09-13T05:02:09.946Z,20.70
2018-09-13T05:04:43.330Z,20.70
2018-09-13T05:07:16.739Z,20.60
2018-09-13T05:09:50.135Z,20.60
2018-09-13T05:12:23.550Z,20.50
2018-09-13T05:14:56.935Z,20.50
2018-09-13T05:17:30.536Z,20.30
2018-09-13T05:20:03.952Z,20.50
2018-09-13T05:22:37.355Z,20.50
2018-09-13T05:25:10.802Z,20.50
2018-09-13T05:27:44.211Z,20.50
2018-09-13T05:30:17.602Z,20.60
2018-09-13T05:32:51.022Z,20.50
2018-09-13T05:35:24.431Z,20.60
2018-09-13T05:37:57.875Z,20.40
2018-09-13T05:40:31.352Z,20.30
2018-09-13T05:43:04.814Z,20.20
2018-09-13T05:45:38.262Z,20.00
2018-09-13T05:48:11.676Z,20.20
2018-09-13T05:50:45.202Z,20.10
2018-09-13T05:53:18.610Z,20.30
2018-09-13T05:55:52.002Z,20.30
2018-09-13T05:58:25.412Z,20.30
2018-09-13T06:00:58.878Z,20.40
2018-09-13T06:03:32.293Z,20.70
2018-09-13T06:06:05.753Z,21.10
2018-09-13T06:08:39.154Z,21.00
2018-09-13T06:11:13.475Z,20.90
2018-09-13T06:13:46.883Z,20.80
2018-09-13T06:16:20.332Z,20.70
2018-09-13T06:18:53.786Z,20.50
2018-09-13T06:21:27.170Z,20.60
2018-09-13T06:24:00.578Z,20.70
2018-09-13T06:26:34.038Z,20.80
2018-09-13T06:29:07.454Z,20.70
2018-09-13T06:31:40.854Z,20.80
2018-09-13T06:34:14.279Z,20.80
2018-09-13T06:36:47.662Z,20.90
2018-09-13T06:39:21.090Z,21.00
2018-09-13T06:41:54.487Z,20.90
2018-09-13T06:44:27.974Z,21.00
2018-09-13T06:47:01.354Z,21.00
2018-09-13T06:49:34.755Z,20.80
2018-09-13T06:52:08.170Z,20.70
2018-09-13T06:54:41.584Z,20.70
2018-09-13T06:57:14.962Z,20.90
2018-09-13T06:59:48.384Z,20.80
2018-09-13T07:02:21.850Z,21.10
2018-09-13T07:04:55.242Z,21.30
2018-09-13T07:07:28.687Z,21.20
2018-09-13T07:10:02.106Z,21.20
2018-09-13T07:12:35.519Z,21.30
2018-09-13T07:15:08.951Z,21.30
2018-09-13T07:17:42.337Z,21.20
2018-09-13T07:20:15.747Z,21.20
2018-09-13T07:22:49.134Z,21.20
2018-09-13T07:25:22.562Z,21.10
2018-09-13T07:27:55.994Z,21.20
2018-09-13T07:30:29.446Z,21.20
2018-09-13T07:33:02.834Z,21.20
2018-09-13T07:35:36.242Z,21.00
2018-09-13T07:38:09.800Z,20.90
2018-09-13T07:40:43.274Z,20.80
2018-09-13T07:43:16.683Z,20.90
2018-09-13T07:45:50.090Z,20.80
2018-09-13T07:48:23.488Z,20.80
2018-09-13T07:50:56.994Z,21.00
2018-09-13T07:53:30.387Z,21.10
2018-09-13T07:56:03.919Z,21.20
2018-09-13T07:58:37.301Z,21.30
2018-09-13T08:01:10.918Z,21.30
2018-09-13T08:03:44.296Z,21.30
2018-09-13T08:06:17.697Z,21.20
2018-09-13T08:08:51.085Z,21.10
2018-09-13T08:11:25.658Z,21.10
2018-09-13T08:13:59.043Z,21.10
2018-09-13T08:16:32.446Z,21.10
2018-09-13T08:19:05.831Z,21.10
2018-09-13T08:21:39.247Z,20.90
2018-09-13T08:24:12.659Z,20.80
2018-09-13T08:26:46.059Z,20.80
2018-09-13T08:29:19.452Z,20.70
2018-09-13T08:31:52.862Z,20.90
2018-09-13T08:34:26.242Z,20.90
2018-09-13T08:36:59.685Z,21.00
2018-09-13T08:39:33.099Z,21.10
2018-09-13T08:42:06.508Z,21.10
2018-09-13T08:44:39.900Z,21.20
2018-09-13T08:47:13.314Z,21.30
2018-09-13T08:49:46.731Z,21.30
2018-09-13T08:52:20.134Z,21.30
2018-09-13T08:54:53.548Z,21.50
2018-09-13T08:57:26.935Z,21.30
2018-09-13T09:00:00.358Z,21.30
2018-09-13T09:02:33.747Z,21.20
2018-09-13T09:05:07.295Z,21.10
2018-09-13T09:07:41.074Z,21.30
2018-09-13T09:10:14.491Z,21.20
2018-09-13T09:12:47.870Z,21.20
2018-09-13T09:15:21.271Z,21.50
2018-09-13T09:17:54.710Z,21.60
2018-09-13T09:20:28.114Z,21.70
2018-09-13T09:23:01.510Z,21.70
2018-09-13T09:25:34.978Z,21.80
2018-09-13T09:28:08.347Z,21.80
2018-09-13T09:30:41.836Z,22.10
2018-09-13T09:33:15.218Z,21.90
2018-09-13T09:35:48.645Z,22.10
2018-09-13T09:38:22.036Z,22.20
2018-09-13T09:40:55.458Z,22.10
2018-09-13T09:43:28.830Z,22.20
2018-09-13T09:46:02.229Z,22.20
2018-09-13T09:48:35.604Z,22.10
2018-09-13T09:51:09.482Z,22.10
2018-09-13T09:53:42.846Z,22.20
2018-09-13T09:56:16.294Z,22.20
2018-09-13T09:58:49.634Z,22.20
2018-09-13T10:02:25.377Z,22.30
2018-09-13T10:04:58.747Z,22.30
2018-09-13T10:07:32.142Z,22.10
2018-09-13T10:10:05.619Z,22.20
2018-09-13T10:12:38.997Z,22.30
2018-09-13T10:15:17.715Z,22.40
2018-09-13T10:17:56.461Z,22.50
2018-09-13T10:20:35.171Z,22.40
2018-09-13T10:23:14.286Z,22.50
2018-09-13T10:25:52.953Z,22.40
2018-09-13T10:28:31.455Z,22.70
2018-09-13T10:31:10.219Z,22.60
2018-09-13T10:33:48.817Z,22.50
2018-09-13T10:36:27.426Z,22.60
2018-09-13T10:39:06.059Z,22.60
2018-09-13T10:41:44.611Z,22.70
2018-09-13T10:44:23.259Z,22.80
2018-09-13T10:47:02.048Z,22.80
2018-09-13T10:49:40.636Z,22.90
2018-09-13T10:52:16.705Z,23.00
2018-09-13T10:54:50.089Z,22.80
2018-09-13T10:57:28.709Z,22.80
2018-09-13T11:00:02.091Z,22.70
2018-09-13T11:02:35.538Z,22.70
2018-09-13T11:05:08.972Z,22.90
2018-09-13T11:07:42.422Z,23.00
2018-09-13T11:10:15.827Z,23.10
2018-09-13T11:12:53.061Z,23.20
2018-09-13T11:15:41.804Z,23.30
2018-09-13T11:18:15.989Z,23.40
2018-09-13T11:20:49.430Z,23.20
2018-09-13T11:23:22.874Z,23.40
2018-09-13T11:25:56.319Z,23.50
2018-09-13T11:28:29.739Z,23.40
2018-09-13T11:31:04.254Z,23.60
2018-09-13T11:33:37.691Z,23.70
2018-09-13T11:36:11.083Z,23.70
2018-09-13T11:38:44.510Z,23.60
2018-09-13T11:41:17.915Z,23.50
2018-09-13T11:43:51.298Z,23.60
2018-09-13T11:46:24.707Z,23.70
2018-09-13T11:48:58.142Z,23.90
2018-09-13T11:51:31.530Z,23.90
2018-09-13T11:54:04.999Z,23.90
2018-09-13T11:56:38.366Z,23.80
2018-09-13T11:59:11.818Z,23.90
2018-09-13T12:01:45.185Z,23.90
2018-09-13T12:04:18.587Z,23.80
2018-09-13T12:06:52.251Z,23.70
2018-09-13T12:09:25.681Z,24.00
2018-09-13T12:11:59.046Z,24.00
2018-09-13T12:14:32.516Z,24.00
2018-09-13T12:17:05.855Z,23.90
2018-09-13T12:19:39.290Z,23.90
2018-09-13T12:22:12.651Z,23.80
2018-09-13T12:24:46.035Z,23.70
2018-09-13T12:27:19.427Z,23.80
2018-09-13T12:29:52.835Z,24.00
2018-09-13T12:32:26.272Z,23.90
2018-09-13T12:34:59.638Z,23.80
2018-09-13T12:37:33.034Z,23.90
2018-09-13T12:40:07.184Z,23.90
2018-09-13T12:42:40.551Z,23.90
2018-09-13T12:45:13.974Z,24.00
2018-09-13T12:47:47.368Z,24.00
2018-09-13T12:50:20.778Z,23.80
2018-09-13T12:52:54.143Z,23.80
2018-09-13T12:55:31.782Z,23.80
2018-09-13T12:58:05.212Z,23.70
2018-09-13T13:00:38.634Z,23.70
2018-09-13T13:03:13.060Z,23.80
2018-09-13T13:05:46.739Z,23.60
2018-09-13T13:08:20.145Z,23.40
2018-09-13T13:10:53.576Z,23.30
2018-09-13T13:13:27.090Z,23.40
2018-09-13T13:16:00.481Z,23.60
2018-09-13T13:18:33.858Z,23.50
2018-09-13T13:21:07.339Z,23.50
2018-09-13T13:23:40.738Z,23.40
2018-09-13T13:26:14.127Z,23.30
2018-09-13T13:32:30.399Z,23.30
2018-09-13T13:35:03.791Z,23.20
2018-09-13T13:37:37.260Z,23.10
2018-09-13T13:40:10.774Z,23.20
2018-09-13T13:42:44.251Z,23.10
2018-09-13T13:45:17.683Z,23.00
2018-09-13T13:47:51.068Z,22.70
2018-09-13T13:50:25.678Z,22.50
2018-09-13T13:52:59.052Z,22.30
2018-09-13T13:55:32.626Z,22.20
2018-09-13T13:58:06.035Z,22.00
2018-09-13T14:00:39.487Z,22.00
2018-09-13T14:03:12.966Z,21.80
2018-09-13T14:05:46.394Z,21.60
2018-09-13T14:08:20.333Z,21.50
2018-09-13T14:11:02.961Z,21.20
2018-09-13T14:13:36.414Z,21.00
2018-09-13T14:16:09.904Z,21.10
2018-09-13T14:19:20.785Z,21.00
2018-09-13T14:49:40.444Z,20.00
2018-09-13T14:52:13.938Z,19.80
2018-09-13T14:54:47.310Z,19.80
2018-09-13T14:57:20.759Z,20.00
2018-09-13T14:59:54.123Z,20.10
2018-09-13T15:02:27.518Z,20.00
2018-09-13T15:05:00.985Z,19.70
2018-09-13T15:07:34.383Z,19.90
2018-09-13T15:10:07.859Z,20.10
2018-09-13T15:12:41.838Z,20.40
2018-09-13T15:15:15.678Z,20.20
2018-09-13T15:17:49.062Z,20.50
2018-09-13T15:20:22.522Z,20.20
2018-09-13T15:22:56.002Z,20.20
2018-09-13T15:25:29.374Z,20.30
2018-09-13T15:28:03.606Z,20.30
2018-09-13T15:30:37.849Z,20.00
2018-09-13T15:33:11.231Z,20.20
2018-09-13T15:35:44.698Z,20.40
2018-09-13T15:38:18.138Z,20.40
2018-09-13T15:40:51.549Z,20.60
2018-09-13T15:43:24.954Z,20.70
2018-09-13T15:45:58.358Z,20.60
2018-09-13T15:48:31.776Z,20.70
2018-09-13T15:51:05.187Z,20.50
2018-09-13T15:53:38.638Z,20.50
2018-09-13T15:56:12.718Z,20.60
2018-09-13T15:58:46.458Z,20.70
2018-09-13T16:01:19.842Z,20.80
2018-09-13T16:03:53.297Z,20.80
2018-09-13T16:06:26.799Z,20.80
2018-09-13T16:09:00.335Z,20.50
2018-09-13T16:11:33.766Z,20.20
2018-09-13T16:14:07.214Z,20.30
2018-09-13T16:16:40.634Z,20.40
2018-09-13T16:19:15.074Z,20.50
2018-09-13T16:21:48.457Z,20.40
2018-09-13T16:24:21.983Z,20.60
2018-09-13T16:26:55.363Z,20.80
2018-09-13T16:29:28.773Z,21.00
2018-09-13T16:32:02.365Z,21.10
2018-09-13T16:34:35.860Z,21.10
2018-09-13T16:37:10.818Z,21.10
2018-09-13T16:39:49.447Z,21.00
2018-09-13T16:42:28.201Z,20.90
2018-09-13T16:45:01.746Z,20.80
2018-09-13T16:47:40.408Z,20.60
2018-09-13T16:50:13.802Z,20.60
2018-09-13T16:52:47.198Z,20.70
2018-09-13T16:55:20.631Z,20.60
2018-09-13T16:57:54.119Z,20.50
2018-09-13T17:00:27.730Z,20.50
2018-09-13T17:03:01.114Z,20.40
2018-09-13T17:05:34.522Z,20.30
2018-09-13T17:08:07.954Z,20.30
2018-09-13T17:10:41.355Z,20.40
2018-09-13T17:13:14.758Z,20.40
2018-09-13T17:15:48.203Z,20.30
2018-09-13T17:18:21.624Z,20.30
2018-09-13T17:20:55.051Z,20.40
2018-09-13T17:23:28.429Z,20.20
2018-09-13T17:26:01.850Z,20.10
2018-09-13T17:28:35.321Z,20.10
2018-09-13T17:31:08.855Z,20.10
2018-09-13T17:33:42.663Z,20.20
2018-09-13T17:36:16.210Z,20.30
2018-09-13T17:38:49.627Z,20.30
2018-09-13T17:41:23.039Z,20.30
2018-09-13T17:43:56.443Z,20.30
2018-09-13T17:46:29.911Z,20.30
2018-09-13T17:49:03.319Z,20.30
2018-09-13T17:51:36.727Z,20.30
2018-09-13T17:54:10.123Z,20.20
2018-09-13T17:56:43.574Z,20.10
2018-09-13T17:59:16.987Z,20.10
2018-09-13T18:01:50.832Z,20.10
2018-09-13T18:04:24.226Z,20.10
2018-09-13T18:06:57.632Z,20.20
2018-09-13T18:09:31.070Z,20.10
2018-09-13T18:12:04.542Z,20.10
2018-09-13T18:14:38.329Z,20.00
2018-09-13T18:17:11.740Z,20.10
2018-09-13T18:19:45.248Z,20.00
2018-09-13T18:22:18.647Z,19.70
2018-09-13T18:24:52.032Z,19.50
2018-09-13T18:27:25.443Z,19.70
2018-09-13T18:29:58.869Z,19.80
2018-09-13T18:32:32.399Z,19.90
2018-09-13T18:35:06.038Z,19.90
2018-09-13T18:44:09.277Z,20.10
2018-09-13T18:46:42.719Z,20.00
2018-09-13T18:49:16.146Z,20.00
2018-09-13T18:51:49.561Z,20.00
2018-09-13T18:54:23.035Z,20.00
2018-09-13T18:56:56.379Z,20.10
2018-09-13T18:59:29.837Z,20.00
2018-09-13T19:02:03.234Z,19.90
2018-09-13T19:04:37.323Z,19.90
2018-09-13T19:07:13.801Z,19.90
2018-09-13T19:09:47.253Z,19.90
2018-09-13T19:12:23.361Z,19.80
2018-09-13T19:14:56.804Z,19.90
2018-09-13T19:17:30.238Z,19.80
2018-09-13T19:20:03.678Z,19.70
2018-09-13T19:22:37.127Z,19.80
2018-09-13T19:25:10.535Z,19.80
2018-09-13T19:27:44.039Z,19.70
2018-09-13T19:30:17.514Z,19.70
2018-09-13T19:32:51.966Z,19.80
2018-09-13T19:35:25.330Z,19.80
2018-09-13T19:37:58.754Z,19.80
2018-09-13T19:40:32.334Z,19.80
2018-09-13T19:43:06.029Z,19.80
2018-09-13T19:45:39.531Z,19.80
2018-09-13T19:48:12.930Z,19.70
2018-09-13T19:50:46.329Z,19.60
2018-09-13T19:53:19.742Z,19.70
2018-09-13T19:55:53.128Z,19.70
2018-09-13T19:58:26.529Z,19.70
2018-09-13T20:01:00.063Z,19.70
2018-09-13T20:03:33.483Z,19.70
2018-09-13T20:06:06.926Z,19.70
2018-09-13T20:08:40.438Z,19.80
2018-09-13T20:11:13.830Z,19.70
2018-09-13T20:13:47.363Z,19.70
2018-09-13T20:16:20.735Z,19.70
2018-09-13T20:18:54.126Z,19.70
2018-09-13T20:21:27.517Z,19.60
2018-09-13T20:24:01.082Z,19.90
2018-09-13T20:26:34.452Z,19.80
2018-09-13T20:29:07.865Z,19.80
2018-09-13T20:31:41.239Z,19.70
2018-09-13T20:34:14.688Z,19.70
2018-09-13T20:36:48.054Z,19.50
2018-09-13T20:39:21.476Z,19.30
2018-09-13T20:41:54.854Z,19.30
2018-09-13T20:44:28.242Z,19.30
2018-09-13T20:47:01.650Z,19.40
2018-09-13T20:49:35.036Z,19.40
2018-09-13T20:52:08.441Z,19.30
2018-09-13T20:54:41.896Z,19.10
2018-09-13T20:57:15.241Z,19.00
2018-09-13T20:59:48.635Z,19.10
2018-09-13T21:02:22.052Z,19.10
2018-09-13T21:04:55.446Z,19.10
2018-09-13T21:07:28.810Z,19.10
2018-09-13T21:10:02.210Z,19.20
2018-09-13T21:12:36.651Z,19.20
2018-09-13T21:15:10.158Z,19.30
2018-09-13T21:17:43.528Z,19.30
2018-09-13T21:20:16.918Z,19.10
2018-09-13T21:22:50.345Z,19.10
2018-09-13T21:25:23.729Z,19.00
2018-09-13T21:27:57.107Z,18.90
2018-09-13T21:30:30.492Z,18.80
2018-09-13T21:33:03.879Z,18.70
2018-09-13T21:35:37.270Z,18.70
2018-09-13T21:38:10.670Z,18.50
2018-09-13T21:40:44.106Z,18.20
2018-09-13T21:43:17.485Z,18.30
2018-09-13T21:45:51.054Z,18.40
2018-09-13T21:48:24.442Z,18.50
2018-09-13T21:50:57.850Z,18.60
2018-09-13T21:53:31.251Z,18.70
2018-09-13T21:56:04.658Z,18.80
2018-09-13T21:58:38.145Z,18.90
2018-09-13T22:01:11.551Z,18.80
2018-09-13T22:03:44.942Z,18.90
2018-09-13T22:06:18.361Z,19.00
2018-09-13T22:08:51.751Z,19.00
2018-09-13T22:11:25.268Z,18.90
2018-09-13T22:13:58.611Z,18.90
2018-09-13T22:16:32.063Z,18.90
2018-09-13T22:19:05.482Z,18.90
2018-09-13T22:21:38.953Z,18.90
2018-09-13T22:24:12.375Z,18.90
2018-09-13T22:26:45.779Z,18.90
2018-09-13T22:29:19.168Z,18.90
2018-09-13T22:31:52.579Z,18.90
2018-09-13T22:34:26.063Z,18.80
2018-09-13T22:36:59.494Z,18.80
2018-09-13T22:39:32.891Z,18.80
2018-09-13T22:42:06.488Z,18.70
2018-09-13T22:44:41.942Z,18.70
2018-09-13T22:47:15.357Z,18.60
2018-09-13T22:49:48.744Z,18.60
2018-09-13T22:52:22.155Z,18.60
2018-09-13T22:54:55.560Z,18.50
2018-09-13T22:57:28.958Z,18.60
2018-09-13T23:00:02.347Z,18.70
2018-09-13T23:02:41.012Z,18.60
2018-09-13T23:05:14.434Z,18.60
2018-09-13T23:07:47.906Z,18.60
2018-09-13T23:10:21.314Z,18.50
2018-09-13T23:12:54.719Z,18.50
2018-09-13T23:15:28.206Z,18.40
2018-09-13T23:18:01.685Z,18.40
2018-09-13T23:20:35.070Z,18.50
2018-09-13T23:23:08.477Z,18.40
2018-09-13T23:25:41.893Z,18.30
2018-09-13T23:28:15.383Z,18.40
2018-09-13T23:30:48.767Z,18.40
2018-09-13T23:33:22.170Z,18.40
2018-09-13T23:35:55.571Z,18.30
2018-09-13T23:38:28.990Z,18.40
2018-09-13T23:41:02.370Z,18.40
2018-09-13T23:43:35.782Z,18.30
2018-09-13T23:46:09.293Z,18.20
2018-09-13T23:48:42.690Z,18.30
2018-09-13T23:51:16.077Z,18.30
2018-09-13T23:53:49.483Z,18.20
2018-09-13T23:56:22.951Z,18.30
2018-09-13T23:58:56.366Z,18.30
